sensor_id;sensor_type;location;lat;lon;timestamp;noise_LAeq;noise_LA_min;noise_LA_max;noise_LA01;noise_LA95
46564;Laerm;32291;52.010;4.446;2022-11-20T00:00:08;36.87;32.93;39.34;;
46564;Laerm;32291;52.010;4.446;2022-11-20T00:01:23;36.86;33.90;39.34;;
46564;Laerm;32291;52.010;4.446;2022-11-20T00:02:26;36.91;33.90;39.34;;
46564;Laerm;32291;52.010;4.446;2022-11-20T00:03:28;36.94;33.97;39.46;;
46564;Laerm;32291;52.010;4.446;2022-11-20T00:04:30;36.93;32.35;39.46;;
46564;Laerm;32291;52.010;4.446;2022-11-20T00:05:33;36.93;33.44;39.08;;
46564;Laerm;32291;52.010;4.446;2022-11-20T00:06:35;36.96;33.90;39.08;;
46564;Laerm;32291;52.010;4.446;2022-11-20T00:07:37;36.96;33.90;39.58;;
46564;Laerm;32291;52.010;4.446;2022-11-20T00:08:40;36.97;33.44;39.58;;
46564;Laerm;32291;52.010;4.446;2022-11-20T00:09:42;37.00;34.31;39.46;;
46564;Laerm;32291;52.010;4.446;2022-11-20T00:10:45;37.04;33.90;39.34;;
46564;Laerm;32291;52.010;4.446;2022-11-20T00:11:47;37.01;33.44;39.58;;
46564;Laerm;32291;52.010;4.446;2022-11-20T00:12:49;36.97;33.90;39.35;;
46564;Laerm;32291;52.010;4.446;2022-11-20T00:13:56;36.99;33.90;39.21;;
46564;Laerm;32291;52.010;4.446;2022-11-20T00:14:59;36.95;33.90;39.34;;
46564;Laerm;32291;52.010;4.446;2022-11-20T00:16:06;36.94;33.90;39.23;;
46564;Laerm;32291;52.010;4.446;2022-11-20T00:17:09;36.97;33.90;39.21;;
46564;Laerm;32291;52.010;4.446;2022-11-20T00:18:11;36.97;33.90;39.21;;
46564;Laerm;32291;52.010;4.446;2022-11-20T00:19:13;36.98;33.90;39.21;;
46564;Laerm;32291;52.010;4.446;2022-11-20T00:20:18;36.97;33.90;39.21;;
46564;Laerm;32291;52.010;4.446;2022-11-20T00:21:27;37.00;33.90;39.21;;
46564;Laerm;32291;52.010;4.446;2022-11-20T00:22:29;37.00;34.31;39.35;;
46564;Laerm;32291;52.010;4.446;2022-11-20T00:23:31;36.98;32.93;39.34;;
46564;Laerm;32291;52.010;4.446;2022-11-20T00:24:34;36.98;34.31;39.34;;
46564;Laerm;32291;52.010;4.446;2022-11-20T00:25:36;37.00;34.31;39.58;;
46564;Laerm;32291;52.010;4.446;2022-11-20T00:26:38;37.02;34.31;39.34;;
46564;Laerm;32291;52.010;4.446;2022-11-20T00:27:40;37.05;34.69;39.92;;
46564;Laerm;32291;52.010;4.446;2022-11-20T00:28:44;37.07;33.90;39.34;;
46564;Laerm;32291;52.010;4.446;2022-11-20T00:29:51;37.04;33.44;39.46;;
46564;Laerm;32291;52.010;4.446;2022-11-20T00:31:06;37.08;34.69;39.34;;
46564;Laerm;32291;52.010;4.446;2022-11-20T00:32:08;37.12;33.90;39.34;;
46564;Laerm;32291;52.010;4.446;2022-11-20T00:33:11;37.10;34.31;39.21;;
46564;Laerm;32291;52.010;4.446;2022-11-20T00:34:13;37.12;33.90;39.21;;
46564;Laerm;32291;52.010;4.446;2022-11-20T00:35:15;37.12;33.90;39.46;;
46564;Laerm;32291;52.010;4.446;2022-11-20T00:36:22;37.05;33.90;39.34;;
46564;Laerm;32291;52.010;4.446;2022-11-20T00:37:24;37.07;34.31;39.35;;
46564;Laerm;32291;52.010;4.446;2022-11-20T00:38:26;37.07;33.90;39.34;;
46564;Laerm;32291;52.010;4.446;2022-11-20T00:39:29;37.04;33.90;39.46;;
46564;Laerm;32291;52.010;4.446;2022-11-20T00:40:31;37.08;34.31;39.46;;
46564;Laerm;32291;52.010;4.446;2022-11-20T00:41:33;37.04;34.31;39.21;;
46564;Laerm;32291;52.010;4.446;2022-11-20T00:42:35;37.04;32.93;39.58;;
46564;Laerm;32291;52.010;4.446;2022-11-20T00:43:39;37.03;34.31;39.92;;
46564;Laerm;32291;52.010;4.446;2022-11-20T00:44:41;37.03;34.31;39.46;;
46564;Laerm;32291;52.010;4.446;2022-11-20T00:45:43;37.04;34.31;39.70;;
46564;Laerm;32291;52.010;4.446;2022-11-20T00:46:45;37.03;32.93;39.34;;
46564;Laerm;32291;52.010;4.446;2022-11-20T00:47:47;37.05;34.31;39.21;;
46564;Laerm;32291;52.010;4.446;2022-11-20T00:48:49;37.03;34.69;39.34;;
46564;Laerm;32291;52.010;4.446;2022-11-20T00:49:51;37.04;34.31;39.46;;
46564;Laerm;32291;52.010;4.446;2022-11-20T00:50:54;37.01;33.90;39.70;;
46564;Laerm;32291;52.010;4.446;2022-11-20T00:51:55;37.02;34.31;39.21;;
46564;Laerm;32291;52.010;4.446;2022-11-20T00:52:57;37.00;34.31;39.58;;
46564;Laerm;32291;52.010;4.446;2022-11-20T00:53:59;37.00;34.31;39.08;;
46564;Laerm;32291;52.010;4.446;2022-11-20T00:55:04;37.02;34.31;39.34;;
46564;Laerm;32291;52.010;4.446;2022-11-20T00:56:11;37.05;33.90;39.35;;
46564;Laerm;32291;52.010;4.446;2022-11-20T00:57:14;37.04;34.31;39.46;;
46564;Laerm;32291;52.010;4.446;2022-11-20T00:58:16;37.05;33.90;39.21;;
46564;Laerm;32291;52.010;4.446;2022-11-20T00:59:18;37.07;34.31;39.35;;
46564;Laerm;32291;52.010;4.446;2022-11-20T01:00:20;37.04;34.31;39.23;;
46564;Laerm;32291;52.010;4.446;2022-11-20T01:01:25;37.10;33.90;39.70;;
46564;Laerm;32291;52.010;4.446;2022-11-20T01:02:27;37.08;34.31;39.46;;
46564;Laerm;32291;52.010;4.446;2022-11-20T01:03:35;37.05;34.31;39.21;;
46564;Laerm;32291;52.010;4.446;2022-11-20T01:04:38;37.11;33.90;39.34;;
46564;Laerm;32291;52.010;4.446;2022-11-20T01:05:40;37.12;34.69;39.46;;
46564;Laerm;32291;52.010;4.446;2022-11-20T01:06:42;37.14;34.69;39.21;;
46564;Laerm;32291;52.010;4.446;2022-11-20T01:07:44;37.09;34.69;39.34;;
46564;Laerm;32291;52.010;4.446;2022-11-20T01:08:49;37.11;34.31;39.46;;
46564;Laerm;32291;52.010;4.446;2022-11-20T01:09:51;37.07;33.90;39.46;;
46564;Laerm;32291;52.010;4.446;2022-11-20T01:11:10;37.04;34.31;39.58;;
46564;Laerm;32291;52.010;4.446;2022-11-20T01:12:12;37.04;33.90;39.34;;
46564;Laerm;32291;52.010;4.446;2022-11-20T01:13:14;37.02;33.44;39.21;;
46564;Laerm;32291;52.010;4.446;2022-11-20T01:14:35;37.03;33.90;39.46;;
46564;Laerm;32291;52.010;4.446;2022-11-20T01:15:37;37.04;34.31;39.21;;
46564;Laerm;32291;52.010;4.446;2022-11-20T01:16:45;37.01;33.90;39.58;;
46564;Laerm;32291;52.010;4.446;2022-11-20T01:17:47;37.00;34.31;39.46;;
46564;Laerm;32291;52.010;4.446;2022-11-20T01:18:53;36.99;34.31;39.21;;
46564;Laerm;32291;52.010;4.446;2022-11-20T01:19:55;36.97;33.90;39.21;;
46564;Laerm;32291;52.010;4.446;2022-11-20T01:21:33;37.01;33.90;39.34;;
46564;Laerm;32291;52.010;4.446;2022-11-20T01:22:35;37.02;33.90;39.46;;
46564;Laerm;32291;52.010;4.446;2022-11-20T01:23:41;37.01;33.90;39.58;;
46564;Laerm;32291;52.010;4.446;2022-11-20T01:24:43;37.02;33.90;39.46;;
46564;Laerm;32291;52.010;4.446;2022-11-20T01:25:45;37.01;33.55;39.70;;
46564;Laerm;32291;52.010;4.446;2022-11-20T01:26:51;37.01;33.90;39.34;;
46564;Laerm;32291;52.010;4.446;2022-11-20T01:27:53;36.98;33.44;39.21;;
46564;Laerm;32291;52.010;4.446;2022-11-20T01:28:57;37.00;33.90;39.21;;
46564;Laerm;32291;52.010;4.446;2022-11-20T01:29:59;36.99;33.90;39.21;;
46564;Laerm;32291;52.010;4.446;2022-11-20T01:31:02;37.02;33.90;39.58;;
46564;Laerm;32291;52.010;4.446;2022-11-20T01:32:12;37.01;33.44;39.08;;
46564;Laerm;32291;52.010;4.446;2022-11-20T01:33:14;37.05;33.90;39.34;;
46564;Laerm;32291;52.010;4.446;2022-11-20T01:34:20;37.01;34.31;39.58;;
46564;Laerm;32291;52.010;4.446;2022-11-20T01:35:22;37.04;34.31;39.34;;
46564;Laerm;32291;52.010;4.446;2022-11-20T01:36:27;37.05;34.31;39.46;;
46564;Laerm;32291;52.010;4.446;2022-11-20T01:37:30;37.08;33.44;39.21;;
46564;Laerm;32291;52.010;4.446;2022-11-20T01:38:32;37.05;34.31;39.46;;
46564;Laerm;32291;52.010;4.446;2022-11-20T01:39:34;37.10;34.31;39.34;;
46564;Laerm;32291;52.010;4.446;2022-11-20T01:40:36;37.05;33.90;39.46;;
46564;Laerm;32291;52.010;4.446;2022-11-20T01:41:39;37.12;34.31;39.58;;
46564;Laerm;32291;52.010;4.446;2022-11-20T01:43:19;37.10;34.31;39.34;;
46564;Laerm;32291;52.010;4.446;2022-11-20T01:44:59;37.12;34.69;39.70;;
46564;Laerm;32291;52.010;4.446;2022-11-20T01:46:28;37.14;34.31;39.46;;
46564;Laerm;32291;52.010;4.446;2022-11-20T01:47:39;37.16;34.31;39.21;;
46564;Laerm;32291;52.010;4.446;2022-11-20T01:49:09;37.16;34.31;39.81;;
46564;Laerm;32291;52.010;4.446;2022-11-20T01:50:28;37.19;34.31;39.46;;
46564;Laerm;32291;52.010;4.446;2022-11-20T01:51:48;37.20;34.31;39.58;;
46564;Laerm;32291;52.010;4.446;2022-11-20T01:53:05;37.23;34.69;39.34;;
46564;Laerm;32291;52.010;4.446;2022-11-20T01:54:19;37.22;34.31;39.21;;
46564;Laerm;32291;52.010;4.446;2022-11-20T01:55:34;37.21;34.69;39.70;;
46564;Laerm;32291;52.010;4.446;2022-11-20T01:56:44;37.24;34.69;39.46;;
46564;Laerm;32291;52.010;4.446;2022-11-20T01:57:49;37.23;35.01;39.58;;
46564;Laerm;32291;52.010;4.446;2022-11-20T01:58:58;37.24;34.31;39.46;;
46564;Laerm;32291;52.010;4.446;2022-11-20T02:00:12;37.26;33.90;39.46;;
46564;Laerm;32291;52.010;4.446;2022-11-20T02:01:15;37.23;34.69;39.58;;
46564;Laerm;32291;52.010;4.446;2022-11-20T02:02:17;37.24;33.97;39.21;;
46564;Laerm;32291;52.010;4.446;2022-11-20T02:03:20;37.27;34.31;39.34;;
46564;Laerm;32291;52.010;4.446;2022-11-20T02:04:24;37.27;34.69;39.21;;
46564;Laerm;32291;52.010;4.446;2022-11-20T02:05:47;37.27;34.69;39.46;;
46564;Laerm;32291;52.010;4.446;2022-11-20T02:07:04;37.33;33.44;39.21;;
46564;Laerm;32291;52.010;4.446;2022-11-20T02:08:07;37.30;35.01;39.46;;
46564;Laerm;32291;52.010;4.446;2022-11-20T02:09:09;37.34;34.69;39.58;;
46564;Laerm;32291;52.010;4.446;2022-11-20T02:10:12;37.35;34.69;39.58;;
46564;Laerm;32291;52.010;4.446;2022-11-20T02:11:14;37.33;34.69;39.34;;
46564;Laerm;32291;52.010;4.446;2022-11-20T02:12:17;37.34;34.69;39.46;;
46564;Laerm;32291;52.010;4.446;2022-11-20T02:13:37;37.34;34.31;39.46;;
46564;Laerm;32291;52.010;4.446;2022-11-20T02:14:45;37.37;34.69;39.34;;
46564;Laerm;32291;52.010;4.446;2022-11-20T02:15:48;37.35;34.69;39.81;;
46564;Laerm;32291;52.010;4.446;2022-11-20T02:16:51;37.36;34.31;39.34;;
46564;Laerm;32291;52.010;4.446;2022-11-20T02:17:54;37.36;34.69;39.46;;
46564;Laerm;32291;52.010;4.446;2022-11-20T02:19:00;37.31;34.31;39.23;;
46564;Laerm;32291;52.010;4.446;2022-11-20T02:20:04;37.25;34.31;39.46;;
46564;Laerm;32291;52.010;4.446;2022-11-20T02:23:12;37.24;34.69;39.34;;
46564;Laerm;32291;52.010;4.446;2022-11-20T02:24:21;37.19;35.04;39.58;;
46564;Laerm;32291;52.010;4.446;2022-11-20T02:25:27;37.24;34.69;39.58;;
46564;Laerm;32291;52.010;4.446;2022-11-20T02:26:43;37.25;34.69;39.46;;
46564;Laerm;32291;52.010;4.446;2022-11-20T02:27:47;37.23;34.69;39.34;;
46564;Laerm;32291;52.010;4.446;2022-11-20T02:28:50;37.29;34.69;39.46;;
46564;Laerm;32291;52.010;4.446;2022-11-20T02:30:00;37.30;34.31;39.81;;
46564;Laerm;32291;52.010;4.446;2022-11-20T02:31:03;37.41;34.69;39.46;;
46564;Laerm;32291;52.010;4.446;2022-11-20T02:33:21;37.40;34.31;39.58;;
46564;Laerm;32291;52.010;4.446;2022-11-20T02:34:23;37.42;35.01;39.46;;
46564;Laerm;32291;52.010;4.446;2022-11-20T02:36:30;37.45;35.04;39.46;;
46564;Laerm;32291;52.010;4.446;2022-11-20T02:37:38;37.48;34.31;39.70;;
46564;Laerm;32291;52.010;4.446;2022-11-20T02:38:43;37.49;34.69;39.46;;
46564;Laerm;32291;52.010;4.446;2022-11-20T02:39:51;37.48;34.31;39.34;;
46564;Laerm;32291;52.010;4.446;2022-11-20T02:40:53;37.44;35.04;39.58;;
46564;Laerm;32291;52.010;4.446;2022-11-20T02:41:56;37.40;35.04;40.03;;
46564;Laerm;32291;52.010;4.446;2022-11-20T02:42:58;37.41;34.31;39.46;;
46564;Laerm;32291;52.010;4.446;2022-11-20T02:44:02;37.41;34.69;39.58;;
46564;Laerm;32291;52.010;4.446;2022-11-20T02:45:10;37.41;34.69;39.34;;
46564;Laerm;32291;52.010;4.446;2022-11-20T02:46:13;37.37;34.31;39.81;;
46564;Laerm;32291;52.010;4.446;2022-11-20T02:47:15;37.36;34.69;39.92;;
46564;Laerm;32291;52.010;4.446;2022-11-20T02:48:17;37.35;34.31;39.34;;
46564;Laerm;32291;52.010;4.446;2022-11-20T02:49:19;37.31;34.69;39.35;;
46564;Laerm;32291;52.010;4.446;2022-11-20T02:50:21;37.26;35.04;40.03;;
46564;Laerm;32291;52.010;4.446;2022-11-20T02:51:24;37.25;34.69;39.21;;
46564;Laerm;32291;52.010;4.446;2022-11-20T02:52:26;37.24;34.69;39.46;;
46564;Laerm;32291;52.010;4.446;2022-11-20T02:53:28;37.16;34.31;39.34;;
46564;Laerm;32291;52.010;4.446;2022-11-20T02:54:30;37.16;34.31;39.34;;
46564;Laerm;32291;52.010;4.446;2022-11-20T02:55:32;37.13;33.90;39.34;;
46564;Laerm;32291;52.010;4.446;2022-11-20T02:56:37;37.11;33.90;39.46;;
46564;Laerm;32291;52.010;4.446;2022-11-20T02:57:40;37.09;33.90;39.70;;
46564;Laerm;32291;52.010;4.446;2022-11-20T02:58:42;37.13;34.69;39.21;;
46564;Laerm;32291;52.010;4.446;2022-11-20T02:59:44;37.15;33.90;39.34;;
46564;Laerm;32291;52.010;4.446;2022-11-20T03:00:46;37.22;34.69;39.70;;
46564;Laerm;32291;52.010;4.446;2022-11-20T03:01:48;37.26;34.69;39.34;;
46564;Laerm;32291;52.010;4.446;2022-11-20T03:02:50;37.34;35.01;39.70;;
46564;Laerm;32291;52.010;4.446;2022-11-20T03:03:52;37.36;34.69;39.81;;
46564;Laerm;32291;52.010;4.446;2022-11-20T03:04:57;37.37;34.69;39.70;;
46564;Laerm;32291;52.010;4.446;2022-11-20T03:06:00;37.38;34.69;39.46;;
46564;Laerm;32291;52.010;4.446;2022-11-20T03:07:02;37.31;33.90;39.46;;
46564;Laerm;32291;52.010;4.446;2022-11-20T03:08:04;37.29;34.31;39.46;;
46564;Laerm;32291;52.010;4.446;2022-11-20T03:09:06;37.33;34.31;39.34;;
46564;Laerm;32291;52.010;4.446;2022-11-20T03:10:08;37.36;35.04;39.46;;
46564;Laerm;32291;52.010;4.446;2022-11-20T03:11:10;37.36;34.69;39.81;;
46564;Laerm;32291;52.010;4.446;2022-11-20T03:12:14;37.31;34.69;39.21;;
46564;Laerm;32291;52.010;4.446;2022-11-20T03:13:16;37.26;34.69;39.92;;
46564;Laerm;32291;52.010;4.446;2022-11-20T03:14:18;37.22;34.31;39.58;;
46564;Laerm;32291;52.010;4.446;2022-11-20T03:15:23;37.18;34.31;39.34;;
46564;Laerm;32291;52.010;4.446;2022-11-20T03:16:25;37.22;33.90;39.21;;
46564;Laerm;32291;52.010;4.446;2022-11-20T03:17:27;37.24;34.69;39.70;;
46564;Laerm;32291;52.010;4.446;2022-11-20T03:18:31;37.33;34.31;39.21;;
46564;Laerm;32291;52.010;4.446;2022-11-20T03:19:33;37.35;35.04;39.46;;
46564;Laerm;32291;52.010;4.446;2022-11-20T03:20:35;37.40;35.04;39.34;;
46564;Laerm;32291;52.010;4.446;2022-11-20T03:21:38;37.45;34.31;39.58;;
46564;Laerm;32291;52.010;4.446;2022-11-20T03:22:40;37.41;35.04;39.58;;
46564;Laerm;32291;52.010;4.446;2022-11-20T03:23:42;37.36;34.69;39.34;;
46564;Laerm;32291;52.010;4.446;2022-11-20T03:24:45;37.41;34.69;39.46;;
46564;Laerm;32291;52.010;4.446;2022-11-20T03:25:47;37.40;34.31;39.58;;
46564;Laerm;32291;52.010;4.446;2022-11-20T03:26:49;37.43;34.69;39.81;;
46564;Laerm;32291;52.010;4.446;2022-11-20T03:27:51;37.44;35.01;39.70;;
46564;Laerm;32291;52.010;4.446;2022-11-20T03:29:00;37.47;34.31;39.81;;
46564;Laerm;32291;52.010;4.446;2022-11-20T03:30:04;37.50;35.31;39.70;;
46564;Laerm;32291;52.010;4.446;2022-11-20T03:31:14;37.51;34.69;39.58;;
46564;Laerm;32291;52.010;4.446;2022-11-20T03:32:16;37.50;35.04;39.70;;
46564;Laerm;32291;52.010;4.446;2022-11-20T03:33:18;37.50;34.31;39.58;;
46564;Laerm;32291;52.010;4.446;2022-11-20T03:34:20;37.50;34.69;39.81;;
46564;Laerm;32291;52.010;4.446;2022-11-20T03:35:22;37.48;35.04;39.58;;
46564;Laerm;32291;52.010;4.446;2022-11-20T03:36:26;37.43;35.01;39.58;;
46564;Laerm;32291;52.010;4.446;2022-11-20T03:37:28;37.43;34.69;39.34;;
46564;Laerm;32291;52.010;4.446;2022-11-20T03:38:31;37.48;34.69;39.58;;
46564;Laerm;32291;52.010;4.446;2022-11-20T03:39:34;37.47;35.04;39.58;;
46564;Laerm;32291;52.010;4.446;2022-11-20T03:40:36;37.42;35.04;39.81;;
46564;Laerm;32291;52.010;4.446;2022-11-20T03:41:41;37.40;34.31;39.58;;
46564;Laerm;32291;52.010;4.446;2022-11-20T03:42:43;37.39;34.69;39.46;;
46564;Laerm;32291;52.010;4.446;2022-11-20T03:43:57;37.44;35.04;39.81;;
46564;Laerm;32291;52.010;4.446;2022-11-20T03:44:59;37.47;34.69;39.34;;
46564;Laerm;32291;52.010;4.446;2022-11-20T03:46:02;37.43;35.04;39.58;;
46564;Laerm;32291;52.010;4.446;2022-11-20T03:47:05;37.43;35.04;39.70;;
46564;Laerm;32291;52.010;4.446;2022-11-20T03:48:07;37.47;34.69;39.58;;
46564;Laerm;32291;52.010;4.446;2022-11-20T03:49:09;37.48;34.69;39.81;;
46564;Laerm;32291;52.010;4.446;2022-11-20T03:50:15;37.52;35.04;39.46;;
46564;Laerm;32291;52.010;4.446;2022-11-20T03:51:31;37.52;35.04;40.13;;
46564;Laerm;32291;52.010;4.446;2022-11-20T03:52:34;37.49;34.69;40.03;;
46564;Laerm;32291;52.010;4.446;2022-11-20T03:53:36;37.50;35.36;40.03;;
46564;Laerm;32291;52.010;4.446;2022-11-20T03:54:38;37.54;35.04;39.70;;
46564;Laerm;32291;52.010;4.446;2022-11-20T03:55:40;37.58;34.31;39.70;;
46564;Laerm;32291;52.010;4.446;2022-11-20T03:56:42;37.58;34.69;39.46;;
46564;Laerm;32291;52.010;4.446;2022-11-20T03:57:44;37.58;35.04;39.58;;
46564;Laerm;32291;52.010;4.446;2022-11-20T03:58:46;37.57;34.69;39.92;;
46564;Laerm;32291;52.010;4.446;2022-11-20T03:59:48;37.61;35.04;39.78;;
46564;Laerm;32291;52.010;4.446;2022-11-20T04:00:50;37.59;35.36;39.70;;
46564;Laerm;32291;52.010;4.446;2022-11-20T04:01:52;37.60;35.04;39.58;;
46564;Laerm;32291;52.010;4.446;2022-11-20T04:02:58;37.60;35.36;39.46;;
46564;Laerm;32291;52.010;4.446;2022-11-20T04:04:01;37.54;34.69;39.34;;
46564;Laerm;32291;52.010;4.446;2022-11-20T04:05:03;37.52;35.04;39.92;;
46564;Laerm;32291;52.010;4.446;2022-11-20T04:06:23;37.50;35.04;39.46;;
46564;Laerm;32291;52.010;4.446;2022-11-20T04:07:26;37.46;35.36;39.46;;
46564;Laerm;32291;52.010;4.446;2022-11-20T04:08:30;37.39;35.04;39.70;;
46564;Laerm;32291;52.010;4.446;2022-11-20T04:09:32;37.42;34.69;39.58;;
46564;Laerm;32291;52.010;4.446;2022-11-20T04:10:35;37.41;35.04;39.70;;
46564;Laerm;32291;52.010;4.446;2022-11-20T04:11:40;37.34;34.69;39.34;;
46564;Laerm;32291;52.010;4.446;2022-11-20T04:12:43;37.30;34.69;39.34;;
46564;Laerm;32291;52.010;4.446;2022-11-20T04:13:56;37.26;34.69;39.46;;
46564;Laerm;32291;52.010;4.446;2022-11-20T04:14:58;37.23;34.69;39.46;;
46564;Laerm;32291;52.010;4.446;2022-11-20T04:16:00;37.28;35.04;39.34;;
46564;Laerm;32291;52.010;4.446;2022-11-20T04:17:03;37.27;33.90;39.81;;
46564;Laerm;32291;52.010;4.446;2022-11-20T04:18:05;37.27;34.69;39.21;;
46564;Laerm;32291;52.010;4.446;2022-11-20T04:19:14;37.24;34.69;39.34;;
46564;Laerm;32291;52.010;4.446;2022-11-20T04:20:16;37.18;34.31;39.21;;
46564;Laerm;32291;52.010;4.446;2022-11-20T04:21:18;37.18;33.90;39.70;;
46564;Laerm;32291;52.010;4.446;2022-11-20T04:22:20;37.14;34.69;39.58;;
46564;Laerm;32291;52.010;4.446;2022-11-20T04:23:22;37.14;33.90;39.34;;
46564;Laerm;32291;52.010;4.446;2022-11-20T04:24:26;37.15;34.31;39.34;;
46564;Laerm;32291;52.010;4.446;2022-11-20T04:25:28;37.09;33.44;39.08;;
46564;Laerm;32291;52.010;4.446;2022-11-20T04:26:31;37.09;32.93;39.21;;
46564;Laerm;32291;52.010;4.446;2022-11-20T04:27:33;37.10;33.90;39.08;;
46564;Laerm;32291;52.010;4.446;2022-11-20T04:28:37;37.11;33.90;39.46;;
46564;Laerm;32291;52.010;4.446;2022-11-20T04:29:39;37.12;34.69;39.34;;
46564;Laerm;32291;52.010;4.446;2022-11-20T04:30:41;37.15;34.69;39.21;;
46564;Laerm;32291;52.010;4.446;2022-11-20T04:31:44;37.18;34.31;39.21;;
46564;Laerm;32291;52.010;4.446;2022-11-20T04:32:46;37.14;34.69;39.34;;
46564;Laerm;32291;52.010;4.446;2022-11-20T04:33:49;37.12;33.44;39.21;;
46564;Laerm;32291;52.010;4.446;2022-11-20T04:34:51;37.13;34.31;39.92;;
46564;Laerm;32291;52.010;4.446;2022-11-20T04:35:53;37.12;33.90;39.34;;
46564;Laerm;32291;52.010;4.446;2022-11-20T04:36:55;37.08;34.31;39.70;;
46564;Laerm;32291;52.010;4.446;2022-11-20T04:37:57;37.12;33.90;39.46;;
46564;Laerm;32291;52.010;4.446;2022-11-20T04:39:06;37.12;34.31;39.11;;
46564;Laerm;32291;52.010;4.446;2022-11-20T04:40:08;37.20;33.90;39.58;;
46564;Laerm;32291;52.010;4.446;2022-11-20T04:41:20;37.16;34.31;39.70;;
46564;Laerm;32291;52.010;4.446;2022-11-20T04:42:22;37.13;34.31;39.81;;
46564;Laerm;32291;52.010;4.446;2022-11-20T04:43:32;37.16;33.90;39.34;;
46564;Laerm;32291;52.010;4.446;2022-11-20T04:44:34;37.14;34.69;39.70;;
46564;Laerm;32291;52.010;4.446;2022-11-20T04:45:36;37.17;33.44;39.46;;
46564;Laerm;32291;52.010;4.446;2022-11-20T04:46:42;37.23;34.69;39.81;;
46564;Laerm;32291;52.010;4.446;2022-11-20T04:47:44;37.22;33.44;39.46;;
46564;Laerm;32291;52.010;4.446;2022-11-20T04:48:47;37.27;34.69;39.46;;
46564;Laerm;32291;52.010;4.446;2022-11-20T04:49:49;37.20;34.69;39.68;;
46564;Laerm;32291;52.010;4.446;2022-11-20T04:50:52;37.23;34.31;39.58;;
46564;Laerm;32291;52.010;4.446;2022-11-20T04:51:55;37.28;34.31;39.35;;
46564;Laerm;32291;52.010;4.446;2022-11-20T04:52:57;37.25;34.31;39.70;;
46564;Laerm;32291;52.010;4.446;2022-11-20T04:53:59;37.21;34.69;39.68;;
46564;Laerm;32291;52.010;4.446;2022-11-20T04:55:01;37.26;34.31;39.34;;
46564;Laerm;32291;52.010;4.446;2022-11-20T04:56:11;37.28;34.69;39.70;;
46564;Laerm;32291;52.010;4.446;2022-11-20T04:57:14;37.30;34.31;39.46;;
46564;Laerm;32291;52.010;4.446;2022-11-20T04:58:16;37.32;34.69;39.34;;
46564;Laerm;32291;52.010;4.446;2022-11-20T04:59:18;37.30;34.69;39.46;;
46564;Laerm;32291;52.010;4.446;2022-11-20T05:00:20;37.28;34.31;39.21;;
46564;Laerm;32291;52.010;4.446;2022-11-20T05:01:24;37.23;34.69;39.46;;
46564;Laerm;32291;52.010;4.446;2022-11-20T05:02:26;37.29;34.69;39.92;;
46564;Laerm;32291;52.010;4.446;2022-11-20T05:03:29;37.35;34.31;39.58;;
46564;Laerm;32291;52.010;4.446;2022-11-20T05:04:32;37.36;34.69;39.46;;
46564;Laerm;32291;52.010;4.446;2022-11-20T05:05:35;37.40;34.69;39.46;;
46564;Laerm;32291;52.010;4.446;2022-11-20T05:06:37;37.46;35.01;39.46;;
46564;Laerm;32291;52.010;4.446;2022-11-20T05:07:39;37.51;35.31;39.58;;
46564;Laerm;32291;52.010;4.446;2022-11-20T05:08:41;37.55;34.69;39.70;;
46564;Laerm;32291;52.010;4.446;2022-11-20T05:09:44;37.54;35.04;39.92;;
46564;Laerm;32291;52.010;4.446;2022-11-20T05:10:46;37.50;34.69;39.70;;
46564;Laerm;32291;52.010;4.446;2022-11-20T05:11:48;37.53;35.04;39.58;;
46564;Laerm;32291;52.010;4.446;2022-11-20T05:12:50;37.57;35.04;39.58;;
46564;Laerm;32291;52.010;4.446;2022-11-20T05:13:52;37.61;35.04;39.70;;
46564;Laerm;32291;52.010;4.446;2022-11-20T05:14:54;37.64;35.36;39.81;;
46564;Laerm;32291;52.010;4.446;2022-11-20T05:16:07;37.63;35.36;39.81;;
46564;Laerm;32291;52.010;4.446;2022-11-20T05:17:11;37.54;34.69;39.70;;
46564;Laerm;32291;52.010;4.446;2022-11-20T05:18:14;37.52;35.04;39.46;;
46564;Laerm;32291;52.010;4.446;2022-11-20T05:19:16;37.59;35.04;39.70;;
46564;Laerm;32291;52.010;4.446;2022-11-20T05:20:19;37.55;35.04;39.46;;
46564;Laerm;32291;52.010;4.446;2022-11-20T05:21:22;37.61;35.36;40.03;;
46564;Laerm;32291;52.010;4.446;2022-11-20T05:22:24;37.64;34.69;39.81;;
46564;Laerm;32291;52.010;4.446;2022-11-20T05:23:28;37.66;35.04;39.78;;
46564;Laerm;32291;52.010;4.446;2022-11-20T05:24:30;37.60;35.36;39.81;;
46564;Laerm;32291;52.010;4.446;2022-11-20T05:25:32;37.60;35.04;39.81;;
46564;Laerm;32291;52.010;4.446;2022-11-20T05:26:34;37.57;35.04;39.70;;
46564;Laerm;32291;52.010;4.446;2022-11-20T05:27:37;37.64;35.59;39.70;;
46564;Laerm;32291;52.010;4.446;2022-11-20T05:28:39;37.60;35.04;39.46;;
46564;Laerm;32291;52.010;4.446;2022-11-20T05:29:42;37.61;35.04;39.58;;
46564;Laerm;32291;52.010;4.446;2022-11-20T05:30:44;37.62;35.04;39.92;;
46564;Laerm;32291;52.010;4.446;2022-11-20T05:31:46;37.65;35.04;39.46;;
46564;Laerm;32291;52.010;4.446;2022-11-20T05:32:48;37.62;35.36;39.81;;
46564;Laerm;32291;52.010;4.446;2022-11-20T05:33:50;37.58;35.36;39.70;;
46564;Laerm;32291;52.010;4.446;2022-11-20T05:34:52;37.60;34.69;39.81;;
46564;Laerm;32291;52.010;4.446;2022-11-20T05:35:58;37.59;35.04;39.58;;
46564;Laerm;32291;52.010;4.446;2022-11-20T05:37:01;37.65;35.36;39.70;;
46564;Laerm;32291;52.010;4.446;2022-11-20T05:38:03;37.66;35.36;39.58;;
46564;Laerm;32291;52.010;4.446;2022-11-20T05:39:05;37.65;35.04;39.70;;
46564;Laerm;32291;52.010;4.446;2022-11-20T05:40:08;37.64;35.36;39.58;;
46564;Laerm;32291;52.010;4.446;2022-11-20T05:41:18;37.60;35.04;39.58;;
46564;Laerm;32291;52.010;4.446;2022-11-20T05:42:20;37.51;34.69;39.46;;
46564;Laerm;32291;52.010;4.446;2022-11-20T05:43:34;37.44;34.69;39.58;;
46564;Laerm;32291;52.010;4.446;2022-11-20T05:44:36;37.33;34.69;39.58;;
46564;Laerm;32291;52.010;4.446;2022-11-20T05:45:38;37.33;35.04;39.58;;
46564;Laerm;32291;52.010;4.446;2022-11-20T05:46:40;37.29;35.04;39.46;;
46564;Laerm;32291;52.010;4.446;2022-11-20T05:47:44;37.25;34.69;39.34;;
46564;Laerm;32291;52.010;4.446;2022-11-20T05:48:46;37.30;35.04;39.81;;
46564;Laerm;32291;52.010;4.446;2022-11-20T05:49:48;37.29;34.31;39.70;;
46564;Laerm;32291;52.010;4.446;2022-11-20T05:50:50;37.32;34.69;39.58;;
46564;Laerm;32291;52.010;4.446;2022-11-20T05:51:52;37.27;34.69;39.34;;
46564;Laerm;32291;52.010;4.446;2022-11-20T05:52:54;37.31;34.69;40.03;;
46564;Laerm;32291;52.010;4.446;2022-11-20T05:53:57;37.32;34.69;39.81;;
46564;Laerm;32291;52.010;4.446;2022-11-20T05:55:00;37.25;34.31;39.46;;
46564;Laerm;32291;52.010;4.446;2022-11-20T05:56:11;37.19;34.31;39.34;;
46564;Laerm;32291;52.010;4.446;2022-11-20T05:57:14;37.18;34.31;39.46;;
46564;Laerm;32291;52.010;4.446;2022-11-20T05:58:16;37.14;33.90;39.34;;
46564;Laerm;32291;52.010;4.446;2022-11-20T05:59:18;37.15;33.90;39.46;;
46564;Laerm;32291;52.010;4.446;2022-11-20T06:00:21;37.13;34.31;39.46;;
46564;Laerm;32291;52.010;4.446;2022-11-20T06:01:25;37.05;34.31;39.46;;
46564;Laerm;32291;52.010;4.446;2022-11-20T06:02:27;37.08;34.31;39.21;;
46564;Laerm;32291;52.010;4.446;2022-11-20T06:03:29;37.07;33.90;39.21;;
46564;Laerm;32291;52.010;4.446;2022-11-20T06:04:31;37.06;34.31;39.46;;